createdAt,value
2023-08-29T00:00:07.354Z,0
2023-08-29T00:03:07.714Z,0
2023-08-29T00:06:07.316Z,0
2023-08-29T00:09:07.597Z,0
2023-08-29T00:12:07.359Z,0
2023-08-29T00:15:07.265Z,0
2023-08-29T00:18:09.018Z,0
2023-08-29T00:21:07.271Z,0
2023-08-29T00:24:07.366Z,0
2023-08-29T00:27:07.355Z,0
2023-08-29T00:30:07.360Z,0
2023-08-29T00:33:07.752Z,0
2023-08-29T00:36:07.357Z,0
2023-08-29T00:39:07.455Z,0
2023-08-29T00:42:07.361Z,0
2023-08-29T00:45:07.293Z,0
2023-08-29T00:48:08.741Z,0
2023-08-29T00:51:07.609Z,0
2023-08-29T00:54:07.358Z,0
2023-08-29T00:57:07.330Z,0
2023-08-29T01:00:07.469Z,0
2023-08-29T01:03:07.928Z,0
2023-08-29T01:06:07.258Z,0
2023-08-29T01:09:07.381Z,0
2023-08-29T01:12:07.349Z,0
2023-08-29T01:15:07.347Z,0
2023-08-29T01:18:08.121Z,0
2023-08-29T01:21:07.316Z,0
2023-08-29T01:24:07.305Z,0
2023-08-29T01:27:07.310Z,0
2023-08-29T01:30:07.463Z,0
2023-08-29T01:33:07.637Z,0
2023-08-29T01:36:07.285Z,0
2023-08-29T01:39:07.351Z,0
2023-08-29T01:42:07.233Z,0
2023-08-29T01:45:07.635Z,0
2023-08-29T01:48:08.471Z,0
2023-08-29T01:51:07.404Z,0
2023-08-29T01:54:07.254Z,0
2023-08-29T01:57:07.644Z,0
2023-08-29T02:00:07.346Z,0
2023-08-29T02:03:07.541Z,0
2023-08-29T02:06:07.276Z,0
2023-08-29T02:09:07.326Z,0
2023-08-29T02:12:07.359Z,0
2023-08-29T02:15:07.435Z,0
2023-08-29T02:18:08.513Z,0
2023-08-29T02:21:07.341Z,0
2023-08-29T02:24:07.331Z,0
2023-08-29T02:27:07.309Z,0
2023-08-29T02:30:07.844Z,0
2023-08-29T02:33:07.619Z,0
2023-08-29T02:36:07.444Z,0
2023-08-29T02:39:07.256Z,0
2023-08-29T02:42:07.293Z,0
2023-08-29T02:45:07.411Z,0
2023-08-29T02:48:08.286Z,0
2023-08-29T02:51:07.324Z,0
2023-08-29T02:54:07.429Z,0
2023-08-29T02:57:07.285Z,0
2023-08-29T03:00:07.870Z,0
2023-08-29T03:03:07.765Z,0
2023-08-29T03:06:07.369Z,0
2023-08-29T03:09:07.297Z,0
2023-08-29T03:12:07.341Z,0
2023-08-29T03:15:07.377Z,0
2023-08-29T03:18:08.313Z,0
2023-08-29T03:21:07.365Z,0
2023-08-29T03:24:07.267Z,0
2023-08-29T03:27:07.291Z,0
2023-08-29T03:30:07.308Z,0
2023-08-29T03:33:07.949Z,0
2023-08-29T03:36:07.292Z,0
2023-08-29T03:39:07.357Z,0
2023-08-29T03:42:07.340Z,0
2023-08-29T03:45:07.303Z,0
2023-08-29T03:48:31.026Z,0
2023-08-29T03:51:07.697Z,3
2023-08-29T03:54:07.340Z,3
2023-08-29T03:57:07.269Z,3
2023-08-29T04:00:07.405Z,7
2023-08-29T04:03:07.836Z,10
2023-08-29T04:06:07.302Z,17
2023-08-29T04:09:07.299Z,23
2023-08-29T04:12:07.270Z,37
2023-08-29T04:15:07.406Z,50
2023-08-29T04:18:08.277Z,70
2023-08-29T04:21:07.352Z,90
2023-08-29T04:24:07.279Z,120
2023-08-29T04:27:07.254Z,163
2023-08-29T04:30:07.378Z,213
2023-08-29T04:33:07.832Z,253
2023-08-29T04:36:07.380Z,277
2023-08-29T04:39:07.347Z,317
2023-08-29T04:42:07.382Z,367
2023-08-29T04:45:07.490Z,427
2023-08-29T04:48:08.187Z,503
2023-08-29T04:51:07.339Z,597
2023-08-29T04:54:07.367Z,687
2023-08-29T04:57:07.345Z,797
2023-08-29T05:00:08.281Z,877
2023-08-29T05:03:07.952Z,963
2023-08-29T05:06:07.422Z,1057
2023-08-29T05:09:07.279Z,1217
2023-08-29T05:12:07.340Z,1453
2023-08-29T05:15:07.732Z,1733
2023-08-29T05:18:08.155Z,2100
2023-08-29T05:21:07.290Z,2420
2023-08-29T05:24:07.255Z,2640
2023-08-29T05:27:07.311Z,2857
2023-08-29T05:30:07.472Z,2917
2023-08-29T05:33:07.595Z,2900
2023-08-29T05:36:07.517Z,2833
2023-08-29T05:39:08.242Z,2643
2023-08-29T05:42:07.275Z,2537
2023-08-29T05:45:07.309Z,2467
2023-08-29T05:48:08.169Z,2567
2023-08-29T05:51:07.359Z,2703
2023-08-29T05:54:07.329Z,2743
2023-08-29T05:57:07.308Z,2790
2023-08-29T06:00:07.723Z,2813
2023-08-29T06:03:07.775Z,2917
2023-08-29T06:06:07.346Z,2913
2023-08-29T06:09:07.321Z,2917
2023-08-29T06:12:07.332Z,2940
2023-08-29T06:15:08.089Z,2947
2023-08-29T06:18:08.096Z,2890
2023-08-29T06:21:07.318Z,2957
2023-08-29T06:24:07.690Z,3133
2023-08-29T06:27:07.266Z,3280
2023-08-29T06:30:08.214Z,3430
2023-08-29T06:33:07.832Z,3547
2023-08-29T06:36:07.646Z,3663
2023-08-29T06:39:07.305Z,3750
2023-08-29T06:42:07.312Z,3893
2023-08-29T06:45:07.329Z,4123
2023-08-29T06:48:08.294Z,4337
2023-08-29T06:51:08.232Z,4560
2023-08-29T06:54:07.423Z,4827
2023-08-29T06:57:07.388Z,5117
2023-08-29T07:00:08.097Z,5470
2023-08-29T07:03:07.989Z,5860
2023-08-29T07:06:07.511Z,6187
2023-08-29T07:09:07.439Z,6447
2023-08-29T07:12:07.352Z,6780
2023-08-29T07:15:07.389Z,7120
2023-08-29T07:18:08.108Z,7303
2023-08-29T07:21:07.304Z,7703
2023-08-29T07:24:07.369Z,8000
2023-08-29T07:27:07.287Z,8180
2023-08-29T07:30:07.803Z,8153
2023-08-29T07:33:07.675Z,7960
2023-08-29T07:36:07.417Z,8503
2023-08-29T07:39:07.334Z,9203
2023-08-29T07:42:07.333Z,9193
2023-08-29T07:45:08.140Z,9273
2023-08-29T07:48:08.405Z,10057
2023-08-29T07:51:07.686Z,10410
2023-08-29T07:54:07.668Z,10577
2023-08-29T07:57:07.616Z,11023
2023-08-29T08:00:08.357Z,11557
2023-08-29T08:03:07.550Z,12363
2023-08-29T08:06:07.501Z,13123
2023-08-29T08:09:07.313Z,13490
2023-08-29T08:12:07.289Z,13637
2023-08-29T08:15:07.793Z,13673
2023-08-29T08:18:08.131Z,13833
2023-08-29T08:21:08.134Z,14793
2023-08-29T08:24:07.486Z,16233
2023-08-29T08:27:07.257Z,17433
2023-08-29T08:30:08.045Z,17237
2023-08-29T08:33:07.350Z,16307
2023-08-29T08:36:07.883Z,15920
2023-08-29T08:39:07.310Z,16690
2023-08-29T08:42:08.817Z,17627
2023-08-29T08:45:07.882Z,19157
2023-08-29T08:48:08.257Z,19017
2023-08-29T08:51:07.999Z,19520
2023-08-29T08:54:07.357Z,20153
2023-08-29T08:57:07.395Z,20907
2023-08-29T09:00:09.152Z,21297
2023-08-29T09:03:07.697Z,21550
2023-08-29T09:06:15.679Z,21293
2023-08-29T09:09:07.403Z,20690
2023-08-29T09:12:07.350Z,20027
2023-08-29T09:15:08.373Z,19753
2023-08-29T09:18:08.102Z,19550
2023-08-29T09:21:08.195Z,19600
2023-08-29T09:24:07.324Z,19783
2023-08-29T09:27:07.307Z,19380
2023-08-29T09:30:08.354Z,17933
2023-08-29T09:33:07.714Z,16850
2023-08-29T09:36:07.474Z,16400
2023-08-29T09:39:07.331Z,17083
2023-08-29T09:42:07.382Z,17917
2023-08-29T09:45:07.987Z,19267
2023-08-29T09:48:08.321Z,20667
2023-08-29T09:51:07.935Z,21453
2023-08-29T09:54:07.315Z,20900
2023-08-29T09:57:07.325Z,20580
2023-08-29T10:00:08.493Z,22137
2023-08-29T10:03:08.014Z,22080
2023-08-29T10:06:08.151Z,20857
2023-08-29T10:09:07.403Z,21327
2023-08-29T10:12:07.307Z,22147
2023-08-29T10:15:07.399Z,21160
2023-08-29T10:18:08.157Z,19167
2023-08-29T10:21:10.747Z,17710
2023-08-29T10:24:07.306Z,17510
2023-08-29T10:27:07.361Z,18197
2023-08-29T10:30:07.748Z,18927
2023-08-29T10:33:07.744Z,18923
2023-08-29T10:36:07.431Z,18127
2023-08-29T10:39:07.455Z,17650
2023-08-29T10:42:07.290Z,18240
2023-08-29T10:45:07.852Z,20357
2023-08-29T10:48:08.188Z,21933
2023-08-29T10:51:07.581Z,22527
2023-08-29T10:54:07.353Z,24513
2023-08-29T10:57:07.492Z,26330
2023-08-29T11:00:08.844Z,26010
2023-08-29T11:03:07.458Z,26453
2023-08-29T11:06:07.861Z,26257
2023-08-29T11:09:07.244Z,25220
2023-08-29T11:12:07.641Z,26250
2023-08-29T11:15:08.383Z,26943
2023-08-29T11:18:08.199Z,30390
2023-08-29T11:21:07.848Z,35083
2023-08-29T11:24:23.665Z,31983
2023-08-29T11:27:07.403Z,28243
2023-08-29T11:30:47.875Z,25790
2023-08-29T11:33:07.534Z,22197
2023-08-29T11:36:07.896Z,22830
2023-08-29T11:39:07.336Z,30330
2023-08-29T11:48:08.387Z,24117
2023-08-29T11:51:10.843Z,11807
2023-08-29T11:54:07.316Z,11230
2023-08-29T11:57:10.424Z,11330
2023-08-29T12:00:07.556Z,11193
2023-08-29T12:03:07.588Z,10963
2023-08-29T12:06:07.533Z,11663
2023-08-29T12:09:07.941Z,12957
2023-08-29T12:12:07.461Z,15277
2023-08-29T12:15:07.921Z,13167
2023-08-29T12:18:08.351Z,13317
2023-08-29T12:21:08.303Z,13387
2023-08-29T12:24:07.292Z,13943
2023-08-29T12:27:11.655Z,14027
2023-08-29T12:30:07.484Z,15233
2023-08-29T12:33:07.417Z,14967
2023-08-29T12:36:07.475Z,16073
2023-08-29T12:39:07.440Z,16687
2023-08-29T12:42:07.356Z,16397
2023-08-29T12:45:08.160Z,16720
2023-08-29T12:48:08.364Z,15987
2023-08-29T12:51:07.907Z,14217
2023-08-29T12:54:07.407Z,14760
2023-08-29T12:57:07.340Z,41767
2023-08-29T13:00:07.567Z,40020
2023-08-29T13:03:07.916Z,20013
2023-08-29T13:06:07.900Z,54337
2023-08-29T13:09:07.389Z,49947
2023-08-29T13:12:07.339Z,12747
2023-08-29T13:15:07.373Z,47987
2023-08-29T13:18:08.399Z,47500
2023-08-29T13:21:07.410Z,10603
2023-08-29T13:24:07.305Z,10053
2023-08-29T13:27:07.597Z,10690
2023-08-29T13:30:07.479Z,11430
2023-08-29T13:33:07.611Z,12150
2023-08-29T13:36:07.324Z,12483
2023-08-29T13:39:07.439Z,11687
2023-08-29T13:42:07.354Z,12320
2023-08-29T13:45:07.790Z,14397
2023-08-29T13:48:08.336Z,16550
2023-08-29T13:51:07.278Z,28060
2023-08-29T13:54:07.404Z,22543
2023-08-29T13:57:07.377Z,24957
2023-08-29T14:00:07.936Z,54610
2023-08-29T14:03:07.828Z,37610
2023-08-29T14:06:07.347Z,33510
2023-08-29T14:09:07.379Z,31350
2023-08-29T14:12:07.382Z,30173
2023-08-29T14:15:07.412Z,27340
2023-08-29T14:18:08.216Z,26337
2023-08-29T14:21:07.412Z,27787
2023-08-29T14:24:07.339Z,23750
2023-08-29T14:27:07.322Z,19227
2023-08-29T14:30:07.677Z,29407
2023-08-29T14:33:07.470Z,21580
2023-08-29T14:36:07.659Z,20367
2023-08-29T14:39:08.589Z,17493
2023-08-29T14:42:07.283Z,10563
2023-08-29T14:45:10.682Z,13407
2023-08-29T14:48:08.319Z,12373
2023-08-29T14:51:07.332Z,14070
2023-08-29T14:54:07.285Z,14763
2023-08-29T14:57:10.201Z,15273
2023-08-29T15:00:08.376Z,17113
2023-08-29T15:03:11.038Z,18447
2023-08-29T15:06:07.790Z,18010
2023-08-29T15:09:09.347Z,17553
2023-08-29T15:12:07.376Z,17440
2023-08-29T15:15:07.728Z,16253
2023-08-29T15:18:08.239Z,14623
2023-08-29T15:21:07.742Z,14017
2023-08-29T15:24:07.354Z,13093
2023-08-29T15:27:07.314Z,14513
2023-08-29T15:30:07.748Z,15677
2023-08-29T15:33:07.772Z,16877
2023-08-29T15:36:08.451Z,14483
2023-08-29T15:39:07.294Z,14427
2023-08-29T15:42:07.459Z,14373
2023-08-29T15:45:07.925Z,13893
2023-08-29T15:48:08.247Z,14223
2023-08-29T15:51:08.262Z,19447
2023-08-29T15:54:07.323Z,25057
2023-08-29T15:57:10.879Z,21120
2023-08-29T16:00:08.904Z,13653
2023-08-29T16:03:07.661Z,15083
2023-08-29T16:06:07.444Z,14370
2023-08-29T16:09:08.132Z,15830
2023-08-29T16:12:07.311Z,21167
2023-08-29T16:15:07.465Z,14100
2023-08-29T16:18:08.205Z,10980
2023-08-29T16:21:07.620Z,14487
2023-08-29T16:24:07.319Z,18347
2023-08-29T16:27:07.323Z,17110
2023-08-29T16:30:08.478Z,16797
2023-08-29T16:33:07.563Z,16423
2023-08-29T16:36:07.903Z,15337
2023-08-29T16:39:07.347Z,14097
2023-08-29T16:42:07.321Z,11597
2023-08-29T16:45:08.213Z,10040
2023-08-29T16:48:08.423Z,9387
2023-08-29T16:51:08.382Z,8487
2023-08-29T16:54:07.280Z,7777
2023-08-29T16:57:07.571Z,7160
2023-08-29T17:00:08.204Z,7470
2023-08-29T17:03:12.142Z,8057
2023-08-29T17:06:07.436Z,6603
2023-08-29T17:09:07.426Z,5093
2023-08-29T17:12:07.282Z,4693
2023-08-29T17:15:08.516Z,4250
2023-08-29T17:18:08.562Z,3913
2023-08-29T17:21:08.141Z,3670
2023-08-29T17:24:07.323Z,3443
2023-08-29T17:27:07.325Z,3247
2023-08-29T17:30:07.653Z,3063
2023-08-29T17:33:07.493Z,2797
2023-08-29T17:36:08.177Z,2413
2023-08-29T17:39:07.330Z,2107
2023-08-29T17:42:07.335Z,1793
2023-08-29T17:45:07.734Z,1513
2023-08-29T17:48:08.057Z,1293
2023-08-29T17:51:07.824Z,1077
2023-08-29T17:54:07.460Z,830
2023-08-29T17:57:07.313Z,653
2023-08-29T18:00:07.555Z,517
2023-08-29T18:03:07.957Z,403
2023-08-29T18:06:31.146Z,303
2023-08-29T18:09:07.341Z,230
2023-08-29T18:12:07.393Z,180
2023-08-29T18:15:07.481Z,137
2023-08-29T18:18:08.126Z,103
2023-08-29T18:21:08.019Z,77
2023-08-29T18:24:07.386Z,53
2023-08-29T18:27:07.257Z,33
2023-08-29T18:30:07.400Z,23
2023-08-29T18:33:07.392Z,13
2023-08-29T18:36:07.494Z,7
2023-08-29T18:39:07.262Z,7
2023-08-29T18:42:07.322Z,3
2023-08-29T18:45:07.304Z,3
2023-08-29T18:48:07.777Z,0
2023-08-29T18:51:07.642Z,0
2023-08-29T18:54:07.321Z,0
2023-08-29T18:57:07.257Z,0
2023-08-29T19:00:07.300Z,0
2023-08-29T19:03:07.548Z,0
2023-08-29T19:06:07.620Z,0
2023-08-29T19:09:07.322Z,0
2023-08-29T19:12:07.268Z,0
2023-08-29T19:15:07.283Z,0
2023-08-29T19:18:07.864Z,0
2023-08-29T19:21:07.607Z,0
2023-08-29T19:24:07.700Z,0
2023-08-29T19:27:26.972Z,0
2023-08-29T19:30:07.400Z,0
2023-08-29T19:33:07.742Z,0
2023-08-29T19:36:07.326Z,0
2023-08-29T19:39:24.066Z,0
2023-08-29T19:42:07.292Z,0
2023-08-29T19:45:07.291Z,0
2023-08-29T19:48:08.239Z,0
2023-08-29T19:51:07.255Z,0
2023-08-29T19:54:07.349Z,0
2023-08-29T19:57:07.383Z,0
2023-08-29T20:00:07.633Z,0
2023-08-29T20:03:07.439Z,0
2023-08-29T20:06:07.308Z,0
2023-08-29T20:09:07.351Z,0
2023-08-29T20:12:07.296Z,0
2023-08-29T20:15:07.369Z,0
2023-08-29T20:18:07.630Z,0
2023-08-29T20:21:07.280Z,0
2023-08-29T20:24:09.970Z,0
2023-08-29T20:27:07.256Z,0
2023-08-29T20:30:07.360Z,0
2023-08-29T20:33:07.483Z,0
2023-08-29T20:36:07.319Z,0
2023-08-29T20:39:07.563Z,0
2023-08-29T20:42:07.247Z,0
2023-08-29T20:45:07.365Z,0
2023-08-29T20:48:07.717Z,0
2023-08-29T20:51:07.330Z,0
2023-08-29T20:54:07.314Z,0
2023-08-29T20:57:07.372Z,0
2023-08-29T21:00:07.405Z,0
2023-08-29T21:03:07.683Z,0
2023-08-29T21:06:07.352Z,0
2023-08-29T21:09:07.386Z,0
2023-08-29T21:12:07.273Z,0
2023-08-29T21:15:07.248Z,0
2023-08-29T21:18:08.035Z,0
2023-08-29T21:21:07.385Z,0
2023-08-29T21:24:07.361Z,0
2023-08-29T21:27:07.230Z,0
2023-08-29T21:30:07.358Z,0
2023-08-29T21:33:07.529Z,0
2023-08-29T21:36:07.413Z,0
2023-08-29T21:39:07.312Z,0
2023-08-29T21:42:07.388Z,0
2023-08-29T21:45:07.253Z,0
2023-08-29T21:48:07.723Z,0
2023-08-29T21:51:07.232Z,0
2023-08-29T21:54:07.337Z,0
2023-08-29T21:57:07.282Z,0
2023-08-29T22:00:07.630Z,0
2023-08-29T22:03:08.011Z,0
2023-08-29T22:06:07.374Z,0
2023-08-29T22:09:07.284Z,0
2023-08-29T22:12:07.256Z,0
2023-08-29T22:15:07.258Z,0
2023-08-29T22:18:08.063Z,0
2023-08-29T22:21:07.273Z,0
2023-08-29T22:24:07.271Z,0
2023-08-29T22:27:07.262Z,0
2023-08-29T22:30:07.437Z,0
2023-08-29T22:33:07.490Z,0
2023-08-29T22:36:07.322Z,0
2023-08-29T22:39:07.219Z,0
2023-08-29T22:42:07.306Z,0
2023-08-29T22:45:07.372Z,0
2023-08-29T22:48:08.140Z,0
2023-08-29T22:51:07.241Z,0
2023-08-29T22:54:07.342Z,0
2023-08-29T22:57:07.298Z,0
2023-08-29T23:00:07.399Z,0
2023-08-29T23:03:08.236Z,0
2023-08-29T23:06:07.250Z,0
2023-08-29T23:09:07.284Z,0
2023-08-29T23:12:07.359Z,0
2023-08-29T23:15:07.338Z,0
2023-08-29T23:18:07.737Z,0
2023-08-29T23:21:07.413Z,0
2023-08-29T23:24:07.284Z,0
2023-08-29T23:27:07.439Z,0
2023-08-29T23:30:07.316Z,0
2023-08-29T23:33:07.548Z,0
2023-08-29T23:36:07.274Z,0
2023-08-29T23:39:07.300Z,0
2023-08-29T23:42:07.447Z,0
2023-08-29T23:45:07.536Z,0
2023-08-29T23:48:07.604Z,0
2023-08-29T23:51:07.263Z,0
2023-08-29T23:54:07.344Z,0
2023-08-29T23:57:07.280Z,0
